Time;durP1;ratioP1;P1;durP2;ratioP2;P2;SDS_P1;SDS_P2;PMS_P1;PMS_P2;Temp;Humidity;BMP_temperature;BMP_pressure;BME280_temperature;BME280_humidity;BME280_pressure;Samples;Min_cycle;Max_cycle;Signal;HPM_P1;HPM_P2
2022/11/24 00:00:00;;;;;;;9.00;3.53;;;7.10;68.20;;;;;;5086562;27;46747;-70
2022/11/24 00:02:28;;;;;;;5.17;2.40;;;7.10;68.10;;;;;;5088418;27;46671;-68
2022/11/24 00:04:53;;;;;;;5.33;3.03;;;7.10;66.90;;;;;;5081317;27;45786;-71
2022/11/24 00:07:19;;;;;;;11.80;2.90;;;7.20;66.90;;;;;;5084331;27;46320;-68
2022/11/24 00:09:44;;;;;;;7.40;2.80;;;7.20;66.60;;;;;;5085121;27;46364;-68
2022/11/24 00:12:10;;;;;;;9.70;3.33;;;7.30;67.70;;;;;;5089265;27;46385;-69
2022/11/24 00:14:35;;;;;;;7.23;2.70;;;7.30;66.50;;;;;;5084073;27;46456;-70
2022/11/24 00:17:01;;;;;;;6.63;2.40;;;7.40;67.60;;;;;;5086305;27;46467;-68
2022/11/24 00:19:27;;;;;;;9.60;2.97;;;7.40;67.50;;;;;;5086208;27;46567;-69
2022/11/24 00:21:52;;;;;;;4.03;2.00;;;7.40;67.50;;;;;;5088442;27;47232;-69
2022/11/24 00:24:18;;;;;;;4.87;2.47;;;7.40;66.50;;;;;;5085439;27;46460;-69
2022/11/24 00:26:43;;;;;;;16.50;3.00;;;7.40;67.50;;;;;;5087909;27;46711;-69
2022/11/24 00:29:10;;;;;;;7.63;2.63;;;7.40;67.60;;;;;;5086977;27;46359;-70
2022/11/24 00:31:40;;;;;;;5.87;3.10;;;7.40;67.50;;;;;;5087030;27;48181;-69
2022/11/24 00:34:11;;;;;;;7.00;2.73;;;7.40;66.60;;;;;;5084406;27;46338;-70
2022/11/24 00:36:38;;;;;;;7.90;2.43;;;7.40;66.50;;;;;;5090577;27;46309;-68
2022/11/24 00:39:06;;;;;;;8.73;2.40;;;7.40;67.60;;;;;;5085693;27;46741;-69
2022/11/24 00:41:32;;;;;;;9.27;3.43;;;7.40;67.40;;;;;;5085739;27;46772;-70
2022/11/24 00:43:59;;;;;;;8.93;3.20;;;7.50;67.30;;;;;;5088844;27;46463;-71
2022/11/24 00:46:25;;;;;;;7.97;2.60;;;7.50;66.40;;;;;;5086538;27;46618;-69
2022/11/24 00:48:52;;;;;;;6.27;2.67;;;7.40;67.50;;;;;;5090278;27;46520;-71
2022/11/24 00:51:20;;;;;;;8.73;2.80;;;7.40;67.50;;;;;;5084215;27;46343;-68
2022/11/24 00:53:46;;;;;;;3.73;2.00;;;7.30;67.70;;;;;;5087683;27;45842;-69
2022/11/24 00:56:11;;;;;;;6.00;2.90;;;7.30;66.80;;;;;;5087286;27;46403;-70
2022/11/24 00:58:38;;;;;;;9.20;2.43;;;7.30;68.00;;;;;;5088568;27;46904;-69
2022/11/24 01:01:12;;;;;;;7.40;2.67;;;7.20;68.10;;;;;;5085493;27;48320;-71
2022/11/24 01:03:38;;;;;;;4.53;2.10;;;7.20;68.20;;;;;;5086095;27;46387;-68
2022/11/24 01:06:10;;;;;;;6.20;2.30;;;7.00;67.40;;;;;;5082765;27;46564;-70
2022/11/24 01:08:37;;;;;;;7.13;2.37;;;7.00;68.60;;;;;;5082364;27;46417;-70
2022/11/24 01:11:15;;;;;;;6.23;2.20;;;6.90;68.90;;;;;;5087188;27;46491;-71
2022/11/24 01:13:42;;;;;;;6.87;2.00;;;6.90;69.00;;;;;;5081174;27;46502;-72
2022/11/24 01:16:19;;;;;;;15.90;2.70;;;6.90;67.80;;;;;;5085398;27;46364;-69
2022/11/24 01:18:45;;;;;;;7.93;2.10;;;6.90;68.80;;;;;;5084947;27;46452;-72
2022/11/24 01:21:11;;;;;;;6.17;2.20;;;6.80;68.70;;;;;;5086611;27;46706;-69
2022/11/24 01:23:37;;;;;;;5.13;1.73;;;6.70;69.10;;;;;;5085405;27;46646;-70
2022/11/24 01:26:05;;;;;;;8.27;2.23;;;6.50;68.40;;;;;;5088150;27;46373;-70
2022/11/24 01:28:30;;;;;;;4.57;2.23;;;6.40;69.70;;;;;;5087133;27;46754;-68
2022/11/24 01:31:01;;;;;;;4.53;2.17;;;6.40;69.80;;;;;;5087885;27;47690;-70
2022/11/24 01:33:27;;;;;;;5.80;2.13;;;6.30;69.90;;;;;;5083904;27;46428;-71
2022/11/24 01:35:53;;;;;;;4.63;2.30;;;6.30;69.10;;;;;;5085038;27;46558;-69
2022/11/24 01:38:19;;;;;;;4.77;2.20;;;6.30;70.00;;;;;;5085140;27;47129;-69
2022/11/24 01:40:45;;;;;;;5.67;2.30;;;6.40;69.90;;;;;;5086092;27;46370;-68
2022/11/24 01:43:18;;;;;;;3.27;2.07;;;6.40;69.10;;;;;;5086499;27;46749;-70
2022/11/24 01:45:45;;;;;;;5.40;2.60;;;6.50;68.00;;;;;;5089985;27;46428;-70
2022/11/24 01:48:23;;;;;;;6.83;1.97;;;6.50;68.00;;;;;;5088614;27;46877;-70
2022/11/24 01:50:54;;;;;;;8.80;2.63;;;6.40;69.00;;;;;;5085681;27;47054;-69
2022/11/24 01:53:22;;;;;;;5.43;2.40;;;6.50;69.00;;;;;;5084544;27;46443;-71
2022/11/24 01:55:50;;;;;;;6.60;2.10;;;6.50;67.80;;;;;;5084853;27;46639;-70
2022/11/24 01:58:23;;;;;;;4.53;2.10;;;6.50;68.70;;;;;;5084589;27;46434;-70
2022/11/24 02:00:49;;;;;;;2.87;1.80;;;6.60;68.60;;;;;;5080106;27;49130;-71
2022/11/24 02:03:20;;;;;;;5.53;2.17;;;6.60;68.40;;;;;;5087495;27;46406;-72
2022/11/24 02:06:11;;;;;;;6.07;2.20;;;6.70;67.30;;;;;;5087740;27;46289;-69
2022/11/24 02:08:44;;;;;;;4.77;1.80;;;6.60;68.40;;;;;;5086677;27;46539;-68
2022/11/24 02:11:10;;;;;;;4.30;1.93;;;6.60;68.70;;;;;;5084980;27;47345;-69
2022/11/24 02:13:38;;;;;;;3.00;1.57;;;6.60;68.70;;;;;;5087215;27;46435;-68
2022/11/24 02:16:06;;;;;;;3.70;1.80;;;6.70;67.40;;;;;;5085858;27;46521;-69
2022/11/24 02:18:32;;;;;;;4.47;2.17;;;6.70;68.40;;;;;;5086985;27;46451;-69
2022/11/24 02:20:59;;;;;;;4.90;1.50;;;6.80;68.30;;;;;;5087267;27;47438;-70
2022/11/24 02:23:42;;;;;;;2.23;1.57;;;6.90;68.20;;;;;;5083763;27;46487;-69
2022/11/24 02:26:32;;;;;;;2.03;1.47;;;6.90;66.90;;;;;;5085549;27;46480;-70
2022/11/24 02:28:58;;;;;;;3.80;1.30;;;7.00;67.70;;;;;;5085128;27;46544;-71
2022/11/24 02:31:24;;;;;;;2.67;1.53;;;7.00;67.50;;;;;;5084340;27;46638;-69
2022/11/24 02:33:50;;;;;;;4.00;1.70;;;7.10;67.50;;;;;;5085675;27;46439;-70
2022/11/24 02:36:16;;;;;;;3.97;1.20;;;7.10;66.60;;;;;;5084969;27;45993;-69
2022/11/24 02:38:41;;;;;;;3.83;1.50;;;7.10;67.70;;;;;;5086658;27;46400;-68
2022/11/24 02:41:12;;;;;;;6.97;1.47;;;7.10;67.80;;;;;;5083357;27;47503;-71
2022/11/24 02:43:51;;;;;;;2.77;1.37;;;7.20;67.80;;;;;;5085728;27;46576;-68
2022/11/24 02:46:16;;;;;;;2.27;1.10;;;7.20;66.90;;;;;;5082481;27;46436;-68
2022/11/24 02:48:42;;;;;;;6.53;1.30;;;7.20;68.00;;;;;;5083880;27;46447;-69
2022/11/24 02:51:08;;;;;;;5.00;1.20;;;7.20;67.90;;;;;;5085193;27;46565;-70
2022/11/24 02:53:33;;;;;;;1.97;1.10;;;7.20;68.00;;;;;;5082728;27;46647;-71
2022/11/24 02:55:59;;;;;;;4.50;1.47;;;7.20;66.90;;;;;;5082485;27;46447;-68
2022/11/24 02:58:25;;;;;;;2.27;1.13;;;7.20;68.10;;;;;;5082897;27;47067;-68
2022/11/24 03:00:53;;;;;;;4.70;1.57;;;7.20;68.30;;;;;;5085725;27;47375;-69
2022/11/24 03:03:19;;;;;;;4.07;1.10;;;7.20;68.20;;;;;;5088487;27;46605;-71
2022/11/24 03:05:45;;;;;;;1.57;1.03;;;7.20;67.20;;;;;;5090905;27;47264;-69
2022/11/24 03:08:11;;;;;;;5.30;1.10;;;7.30;68.30;;;;;;5089868;27;46877;-68
2022/11/24 03:10:37;;;;;;;2.30;1.03;;;7.30;68.20;;;;;;5088039;27;46517;-68
2022/11/24 03:13:03;;;;;;;3.77;1.50;;;7.30;68.30;;;;;;5084296;27;46665;-69
2022/11/24 03:15:28;;;;;;;2.57;1.20;;;7.30;67.40;;;;;;5089561;27;46654;-69
2022/11/24 03:17:55;;;;;;;2.83;1.13;;;7.30;68.40;;;;;;5090154;27;46587;-68
2022/11/24 03:20:21;;;;;;;6.27;1.30;;;7.30;68.40;;;;;;5088740;27;46612;-71
2022/11/24 03:22:46;;;;;;;4.70;1.37;;;7.30;68.40;;;;;;5085910;27;46285;-70
2022/11/24 03:25:12;;;;;;;2.33;1.23;;;7.30;67.30;;;;;;5082992;27;46565;-68
2022/11/24 03:27:38;;;;;;;6.13;1.50;;;7.40;68.40;;;;;;5088283;27;46556;-71
2022/11/24 03:30:04;;;;;;;2.03;1.40;;;7.40;68.40;;;;;;5088644;27;46534;-69
2022/11/24 03:32:29;;;;;;;4.03;1.30;;;7.40;68.30;;;;;;5089832;27;46439;-68
2022/11/24 03:34:55;;;;;;;4.37;1.60;;;7.30;67.30;;;;;;5084900;27;46397;-68
2022/11/24 03:37:21;;;;;;;2.83;1.30;;;7.30;68.40;;;;;;5086194;27;46372;-69
2022/11/24 03:39:47;;;;;;;2.33;1.50;;;7.30;68.50;;;;;;5086175;27;46473;-68
2022/11/24 03:42:13;;;;;;;5.90;1.50;;;7.30;68.50;;;;;;5089187;27;46471;-68
2022/11/24 03:44:38;;;;;;;4.77;2.00;;;7.40;67.60;;;;;;5085920;27;46462;-71
2022/11/24 03:47:04;;;;;;;2.90;1.70;;;7.30;68.50;;;;;;5086724;27;46402;-69
2022/11/24 03:49:29;;;;;;;6.53;1.33;;;7.40;68.50;;;;;;5083854;27;47395;-70
2022/11/24 03:51:55;;;;;;;3.40;1.43;;;7.40;68.50;;;;;;5085450;27;46461;-68
2022/11/24 03:54:21;;;;;;;6.03;1.80;;;7.40;67.50;;;;;;5086195;27;46483;-68
2022/11/24 03:56:46;;;;;;;2.10;1.10;;;7.40;68.50;;;;;;5089381;27;46381;-68
2022/11/24 03:59:12;;;;;;;9.53;1.97;;;7.40;68.40;;;;;;5083090;27;47614;-68
2022/11/24 04:01:37;;;;;;;7.70;2.33;;;7.40;68.40;;;;;;5084630;27;46527;-70
2022/11/24 04:04:03;;;;;;;7.33;1.83;;;7.40;68.60;;;;;;5088260;27;46455;-70
2022/11/24 04:06:29;;;;;;;2.27;1.40;;;7.40;67.50;;;;;;5092269;27;46489;-69
2022/11/24 04:08:54;;;;;;;5.10;1.93;;;7.40;68.50;;;;;;5085602;27;46494;-69
2022/11/24 04:14:04;;;;;;;5.70;1.50;;;7.50;68.50;;;;;;5085947;27;46656;-68
2022/11/24 04:16:30;;;;;;;7.20;2.00;;;7.50;67.40;;;;;;5090243;27;46477;-69
2022/11/24 04:18:55;;;;;;;5.67;2.03;;;7.50;68.60;;;;;;5088767;27;46369;-68
2022/11/24 04:21:21;;;;;;;5.27;1.77;;;7.50;68.50;;;;;;5089029;27;45924;-68
2022/11/24 04:23:46;;;;;;;7.50;2.00;;;7.50;68.60;;;;;;5084222;27;46824;-68
2022/11/24 04:26:12;;;;;;;4.30;1.93;;;7.40;67.80;;;;;;5088105;27;46562;-69
2022/11/24 04:28:38;;;;;;;5.07;1.53;;;7.20;68.20;;;;;;5087612;27;46548;-69
2022/11/24 04:31:05;;;;;;;11.40;1.63;;;7.20;69.50;;;;;;5084810;27;46463;-68
2022/11/24 04:33:30;;;;;;;8.17;1.80;;;7.00;69.90;;;;;;5085449;27;46673;-68
2022/11/24 04:35:56;;;;;;;4.17;1.83;;;6.90;69.40;;;;;;5086261;27;46490;-68
2022/11/24 04:38:22;;;;;;;9.13;2.47;;;6.80;70.50;;;;;;5086050;27;47866;-68
2022/11/24 04:40:47;;;;;;;4.77;2.10;;;6.70;70.70;;;;;;5089839;27;46539;-70
2022/11/24 04:43:13;;;;;;;10.60;2.27;;;6.70;70.70;;;;;;5088944;27;46475;-70
2022/11/24 04:45:38;;;;;;;5.60;2.10;;;6.70;69.80;;;;;;5086123;27;46411;-68
2022/11/24 04:48:05;;;;;;;7.90;2.40;;;6.60;70.70;;;;;;5083154;27;47463;-70
2022/11/24 04:50:30;;;;;;;8.50;2.17;;;6.60;70.80;;;;;;5091695;27;46493;-69
2022/11/24 04:52:56;;;;;;;6.73;2.00;;;6.60;69.80;;;;;;5084975;27;45874;-68
2022/11/24 04:55:21;;;;;;;6.43;2.10;;;6.60;69.80;;;;;;5081003;27;46416;-68
2022/11/24 04:57:47;;;;;;;9.43;2.27;;;6.60;70.70;;;;;;5085277;27;47725;-69
2022/11/24 05:00:13;;;;;;;3.07;1.90;;;6.70;70.30;;;;;;5087810;27;45818;-69
2022/11/24 05:02:39;;;;;;;8.43;2.47;;;6.80;70.10;;;;;;5091605;27;46350;-70
2022/11/24 05:05:06;;;;;;;9.80;2.30;;;6.90;68.70;;;;;;5081805;27;46482;-68
2022/11/24 05:07:31;;;;;;;4.43;1.83;;;7.00;69.80;;;;;;5088128;27;46722;-70
2022/11/24 05:12:41;;;;;;;6.33;2.00;;;7.10;69.40;;;;;;5088451;27;46465;-68
2022/11/24 05:15:08;;;;;;;6.13;1.87;;;7.10;68.20;;;;;;5084788;27;46359;-68
2022/11/24 05:17:36;;;;;;;4.53;1.93;;;7.20;69.40;;;;;;5084015;27;47485;-69
2022/11/24 05:20:03;;;;;;;3.20;1.70;;;7.20;69.30;;;;;;5087939;27;46586;-68
2022/11/24 05:22:29;;;;;;;11.07;1.87;;;7.20;69.30;;;;;;5081784;27;46424;-69
2022/11/24 05:24:54;;;;;;;4.00;1.63;;;7.20;68.50;;;;;;5085104;27;46709;-69
2022/11/24 05:27:20;;;;;;;10.90;1.80;;;7.20;69.60;;;;;;5084299;27;47055;-68
2022/11/24 05:29:46;;;;;;;14.60;2.10;;;7.20;69.70;;;;;;5085019;27;46408;-68
2022/11/24 05:32:11;;;;;;;8.73;2.07;;;7.30;69.60;;;;;;5082335;27;46442;-69
2022/11/24 05:34:37;;;;;;;4.73;1.43;;;7.30;68.70;;;;;;5086310;27;46631;-68
2022/11/24 05:37:03;;;;;;;10.63;2.30;;;7.30;69.70;;;;;;5087505;27;47448;-70
2022/11/24 05:39:33;;;;;;;17.20;2.03;;;7.30;68.60;;;;;;5084262;27;46471;-68
2022/11/24 05:42:38;;;;;;;10.57;4.73;;;7.20;69.70;;;;;;5087608;27;46357;-68
2022/11/24 05:44:45;;;;;;;10.53;3.57;;;7.10;69.00;;;;;;5088856;27;46555;-70
2022/11/24 05:47:11;;;;;;;8.10;2.40;;;7.00;70.00;;;;;;5086798;27;46474;-70
2022/11/24 05:49:36;;;;;;;23.17;4.00;;;6.90;70.20;;;;;;5082445;27;46480;-70
2022/11/24 05:52:02;;;;;;;14.67;2.20;;;6.80;70.60;;;;;;5084917;27;46467;-69
2022/11/24 05:54:27;;;;;;;12.40;2.40;;;6.80;70.00;;;;;;5083934;27;46362;-68
2022/11/24 05:56:54;;;;;;;6.97;3.03;;;6.80;70.80;;;;;;5085223;27;46628;-70
2022/11/24 05:59:20;;;;;;;6.47;2.57;;;6.80;70.50;;;;;;5082250;27;46874;-69
2022/11/24 06:01:45;;;;;;;9.93;3.53;;;6.90;70.40;;;;;;5085894;27;46464;-70
2022/11/24 06:04:11;;;;;;;8.03;2.00;;;6.90;70.40;;;;;;5084238;27;47429;-71
2022/11/24 06:06:36;;;;;;;10.23;3.43;;;6.90;69.20;;;;;;5086168;27;46709;-68
2022/11/24 06:09:03;;;;;;;9.33;2.10;;;6.80;70.40;;;;;;5084721;27;46443;-71
2022/11/24 06:11:28;;;;;;;9.17;2.17;;;6.70;70.70;;;;;;5084906;27;46313;-69
2022/11/24 06:13:54;;;;;;;6.57;2.17;;;6.60;71.10;;;;;;5085947;27;46474;-70
2022/11/24 06:16:19;;;;;;;12.80;2.23;;;6.50;70.20;;;;;;5081400;27;46500;-69
2022/11/24 06:18:45;;;;;;;15.50;2.30;;;6.40;71.40;;;;;;5082301;27;46555;-69
2022/11/24 06:21:11;;;;;;;10.20;2.30;;;6.30;71.60;;;;;;5085471;27;46443;-69
2022/11/24 06:23:36;;;;;;;12.83;2.17;;;6.30;71.70;;;;;;5085190;27;46733;-68
2022/11/24 06:26:03;;;;;;;7.40;1.80;;;6.30;70.60;;;;;;5085839;27;46463;-71
2022/11/24 06:28:28;;;;;;;7.73;2.30;;;6.30;71.70;;;;;;5083491;27;46476;-68
2022/11/24 06:30:54;;;;;;;7.30;2.27;;;6.30;71.60;;;;;;5083296;27;46734;-69
2022/11/24 06:33:19;;;;;;;5.90;2.33;;;6.30;71.60;;;;;;5084363;27;46510;-69
2022/11/24 06:35:45;;;;;;;11.13;2.83;;;6.30;70.50;;;;;;5082810;27;46807;-70
2022/11/24 06:38:11;;;;;;;7.90;2.80;;;6.30;71.50;;;;;;5084772;27;46555;-71
2022/11/24 06:40:36;;;;;;;10.83;3.47;;;6.30;72.50;;;;;;5082897;27;46436;-67
2022/11/24 06:43:02;;;;;;;14.43;4.50;;;6.20;71.30;;;;;;5082573;27;46408;-71
2022/11/24 06:45:27;;;;;;;6.00;2.37;;;6.20;70.50;;;;;;5080729;27;47749;-68
2022/11/24 06:47:54;;;;;;;6.27;1.60;;;6.20;71.70;;;;;;5041544;27;1232868;-70
2022/11/24 06:50:20;;;;;;;5.27;2.10;;;6.10;71.60;;;;;;5085584;27;46490;-67
2022/11/24 06:52:46;;;;;;;5.40;1.90;;;6.10;71.50;;;;;;5089418;27;46464;-68
2022/11/24 06:55:12;;;;;;;11.17;2.17;;;6.10;71.60;;;;;;5081815;27;47441;-68
2022/11/24 06:57:38;;;;;;;6.40;1.80;;;6.10;71.60;;;;;;5082605;27;46476;-70
2022/11/24 07:00:05;;;;;;;6.37;1.90;;;6.10;71.50;;;;;;5084067;27;46660;-72
2022/11/24 07:02:31;;;;;;;5.40;1.90;;;6.10;71.40;;;;;;5088116;27;46640;-68
2022/11/24 07:04:56;;;;;;;6.83;2.90;;;6.10;70.10;;;;;;5077228;27;47048;-70
2022/11/24 07:07:22;;;;;;;6.67;1.83;;;6.10;71.10;;;;;;5079951;27;46433;-71
2022/11/24 07:09:47;;;;;;;7.87;1.73;;;6.10;71.00;;;;;;5088966;27;46396;-69
2022/11/24 07:12:13;;;;;;;7.40;2.37;;;6.10;70.80;;;;;;5087819;27;45819;-70
2022/11/24 07:14:39;;;;;;;8.20;2.20;;;6.10;69.80;;;;;;5083753;27;46478;-68
2022/11/24 07:17:04;;;;;;;10.43;1.83;;;6.10;70.90;;;;;;5082080;27;46687;-67
2022/11/24 07:19:30;;;;;;;10.90;4.47;;;6.20;70.90;;;;;;5086606;27;46857;-68
2022/11/24 07:21:56;;;;;;;44.27;18.33;;;6.20;70.90;;;;;;5084983;27;46534;-68
2022/11/24 07:24:21;;;;;;;11.73;3.43;;;6.30;69.70;;;;;;5087353;27;47282;-68
2022/11/24 07:26:47;;;;;;;8.50;2.07;;;6.20;70.60;;;;;;5086429;27;46310;-68
2022/11/24 07:29:13;;;;;;;9.90;2.60;;;6.30;70.60;;;;;;5077188;27;46489;-68
2022/11/24 07:31:38;;;;;;;4.97;2.20;;;6.30;70.50;;;;;;5081033;27;46842;-69
2022/11/24 07:34:04;;;;;;;8.37;2.87;;;6.40;70.50;;;;;;5082499;27;47246;-70
2022/11/24 07:36:30;;;;;;;11.47;1.90;;;6.40;69.40;;;;;;5081560;27;46613;-71
2022/11/24 07:38:56;;;;;;;5.87;1.70;;;6.40;70.20;;;;;;5082764;27;45924;-71
2022/11/24 07:41:22;;;;;;;6.70;2.00;;;6.50;71.30;;;;;;5082049;27;46614;-70
2022/11/24 07:43:48;;;;;;;8.80;4.70;;;6.60;70.20;;;;;;5085068;27;46927;-69
2022/11/24 07:46:16;;;;;;;4.33;2.37;;;6.70;68.80;;;;;;5099021;27;46405;-69
2022/11/24 07:48:41;;;;;;;11.83;4.07;;;6.90;69.60;;;;;;5095756;27;45816;-69
2022/11/24 07:51:08;;;;;;;13.37;4.37;;;7.10;69.10;;;;;;5100962;27;45845;-69
2022/11/24 07:53:35;;;;;;;9.60;2.03;;;7.30;68.70;;;;;;5098569;27;46697;-69
2022/11/24 07:56:01;;;;;;;7.33;2.20;;;7.40;67.50;;;;;;5098802;27;46477;-69
2022/11/24 07:58:29;;;;;;;8.70;1.70;;;7.40;68.50;;;;;;5101987;27;45881;-67
2022/11/24 08:00:55;;;;;;;6.13;1.53;;;7.50;68.60;;;;;;5100773;27;46580;-68
2022/11/24 08:03:21;;;;;;;13.40;1.90;;;7.60;68.70;;;;;;5093935;27;46550;-67
2022/11/24 08:05:58;;;;;;;12.03;1.40;;;7.70;67.50;;;;;;5098844;27;46383;-68
2022/11/24 08:08:25;;;;;;;5.60;1.57;;;7.80;68.60;;;;;;5092836;27;46510;-67
2022/11/24 08:10:51;;;;;;;8.23;2.07;;;7.90;67.40;;;;;;5097302;27;46553;-68
2022/11/24 08:13:18;;;;;;;6.60;1.77;;;8.00;68.10;;;;;;5089223;27;46559;-71
2022/11/24 08:15:44;;;;;;;12.63;2.10;;;8.40;66.30;;;;;;5089814;27;46857;-68
2022/11/24 08:18:10;;;;;;;4.87;1.20;;;8.50;67.10;;;;;;5086532;27;46450;-67
2022/11/24 08:20:36;;;;;;;6.67;1.37;;;8.90;66.30;;;;;;5117807;27;46463;-69
2022/11/24 08:23:02;;;;;;;8.03;1.50;;;9.20;65.50;;;;;;5086791;27;46582;-69
2022/11/24 08:25:31;;;;;;;5.40;1.93;;;9.50;64.00;;;;;;5088014;27;46519;-70
2022/11/24 08:28:02;;;;;;;8.03;1.67;;;9.60;64.00;;;;;;5084674;27;46873;-68
2022/11/24 08:30:29;;;;;;;12.03;1.87;;;9.60;65.10;;;;;;5084557;27;46310;-69
2022/11/24 08:32:59;;;;;;;7.90;1.63;;;9.60;65.10;;;;;;5087430;27;47272;-67
2022/11/24 08:35:25;;;;;;;10.13;1.63;;;9.60;65.10;;;;;;5083607;27;46722;-68
2022/11/24 08:37:51;;;;;;;7.10;1.73;;;9.70;65.20;;;;;;5087015;27;46436;-69
2022/11/24 08:40:17;;;;;;;486.07;269.93;;;9.70;64.90;;;;;;5087466;27;46374;-69
2022/11/24 08:42:43;;;;;;;6.17;1.50;;;9.80;64.50;;;;;;5087719;27;47327;-68
2022/11/24 08:45:09;;;;;;;5.67;1.40;;;9.90;63.10;;;;;;5089621;27;46594;-70
2022/11/24 08:47:35;;;;;;;7.57;1.57;;;9.90;64.40;;;;;;5084067;27;46374;-68
2022/11/24 08:50:01;;;;;;;4.57;1.40;;;9.90;64.60;;;;;;5087721;27;46347;-68
2022/11/24 08:52:26;;;;;;;8.50;1.83;;;9.80;64.60;;;;;;5087224;27;47731;-68
2022/11/24 08:54:53;;;;;;;5.83;1.43;;;9.70;63.70;;;;;;5088827;27;46414;-71
2022/11/24 08:57:18;;;;;;;9.87;2.13;;;9.70;65.10;;;;;;5094840;27;46780;-68
2022/11/24 08:59:46;;;;;;;9.50;1.73;;;9.70;64.70;;;;;;5089385;27;46420;-69
2022/11/24 09:02:12;;;;;;;7.00;1.50;;;9.80;64.30;;;;;;5091663;27;46480;-67
2022/11/24 09:04:38;;;;;;;9.80;1.60;;;9.90;62.70;;;;;;5095854;27;45911;-70
2022/11/24 09:07:04;;;;;;;5.73;1.60;;;10.00;62.80;;;;;;5096899;27;46467;-69
2022/11/24 09:09:30;;;;;;;7.57;1.70;;;10.00;62.40;;;;;;5095497;27;46530;-74
2022/11/24 09:11:59;;;;;;;8.83;2.07;;;10.00;62.30;;;;;;5092211;27;47655;-69
2022/11/24 09:14:25;;;;;;;4.40;1.67;;;10.10;60.80;;;;;;5096627;27;46404;-72
2022/11/24 09:16:51;;;;;;;8.73;1.90;;;10.10;61.60;;;;;;5085555;27;46426;-68
2022/11/24 09:19:16;;;;;;;5.27;1.47;;;10.20;61.40;;;;;;5089370;27;47005;-69
2022/11/24 09:21:42;;;;;;;11.43;2.03;;;10.20;61.00;;;;;;5090048;27;46617;-68
2022/11/24 09:24:09;;;;;;;9.13;2.00;;;10.20;60.80;;;;;;5086362;27;46496;-69
2022/11/24 09:26:36;;;;;;;10.20;2.27;;;10.20;60.70;;;;;;5084760;27;46463;-67
2022/11/24 09:29:03;;;;;;;5.50;1.67;;;10.10;60.50;;;;;;5090148;27;46442;-70
2022/11/24 09:31:33;;;;;;;10.10;2.37;;;10.00;60.40;;;;;;5085727;27;46626;-68
2022/11/24 09:33:59;;;;;;;7.67;1.87;;;9.80;61.60;;;;;;5084517;27;46233;-68
2022/11/24 09:36:26;;;;;;;8.00;2.00;;;9.60;61.70;;;;;;5088675;27;46386;-68
2022/11/24 09:38:51;;;;;;;6.93;1.40;;;9.40;62.10;;;;;;5084429;27;46162;-69
2022/11/24 09:41:23;;;;;;;4.30;1.47;;;9.30;62.30;;;;;;5085547;27;47426;-68
2022/11/24 09:44:17;;;;;;;4.37;1.73;;;9.10;62.30;;;;;;5068881;27;46460;-68
2022/11/24 09:46:53;;;;;;;5.97;1.20;;;9.00;62.70;;;;;;5081679;27;46840;-70
2022/11/24 09:50:00;;;;;;;10.30;1.50;;;8.90;62.80;;;;;;5083503;27;46481;-70
2022/11/24 09:52:41;;;;;;;7.57;1.90;;;8.80;63.00;;;;;;5082598;27;47754;-68
2022/11/24 09:55:32;;;;;;;9.50;1.73;;;8.60;63.40;;;;;;5087929;27;46378;-69
2022/11/24 09:58:45;;;;;;;5.70;1.40;;;8.50;63.60;;;;;;5081877;27;46451;-69
2022/11/24 10:01:16;;;;;;;95.60;48.53;;;8.40;64.00;;;;;;5039118;27;46624;-69
2022/11/24 10:03:44;;;;;;;6.73;2.30;;;8.40;64.00;;;;;;5081220;27;47455;-70
2022/11/24 10:06:21;;;;;;;6.43;1.70;;;8.40;64.10;;;;;;5085522;27;46409;-67
2022/11/24 10:09:08;;;;;;;8.17;1.97;;;8.50;63.70;;;;;;5097687;27;46992;-68
2022/11/24 10:11:40;;;;;;;5.97;1.63;;;8.40;64.00;;;;;;5086465;27;46412;-68
2022/11/24 10:14:11;;;;;;;7.90;1.70;;;8.20;64.10;;;;;;5081319;27;46635;-67
2022/11/24 10:16:52;;;;;;;8.33;2.27;;;8.10;65.30;;;;;;5087984;27;46398;-66
2022/11/24 10:19:30;;;;;;;48.30;20.03;;;8.10;66.30;;;;;;5086316;27;46638;-69
2022/11/24 10:22:15;;;;;;;11.57;2.13;;;8.00;66.90;;;;;;5084248;27;46369;-68
2022/11/24 10:24:58;;;;;;;6.73;2.20;;;8.10;66.70;;;;;;5083060;27;46693;-69
2022/11/24 10:27:40;;;;;;;13.17;3.87;;;8.30;66.00;;;;;;5074584;27;46542;-68
2022/11/24 10:30:32;;;;;;;11.60;2.47;;;8.50;65.50;;;;;;5085091;27;46610;-69
2022/11/24 10:33:06;;;;;;;8.10;2.10;;;8.50;65.00;;;;;;5085643;27;46541;-67
2022/11/24 10:35:41;;;;;;;10.17;2.73;;;8.50;65.40;;;;;;5081189;27;46707;-69
2022/11/24 10:38:13;;;;;;;9.70;1.70;;;8.40;65.90;;;;;;5084433;27;46768;-70
2022/11/24 10:40:44;;;;;;;6.23;1.57;;;8.50;65.60;;;;;;5085628;27;46400;-67
2022/11/24 10:43:11;;;;;;;6.17;1.40;;;8.50;65.80;;;;;;5084785;27;46405;-70
2022/11/24 10:45:38;;;;;;;5.50;1.57;;;8.60;65.70;;;;;;5080862;27;47450;-68
2022/11/24 10:48:22;;;;;;;8.40;1.70;;;8.80;65.10;;;;;;5085535;27;46749;-70
2022/11/24 10:50:51;;;;;;;8.00;1.60;;;8.90;64.50;;;;;;5080270;27;46525;-68
2022/11/24 10:53:34;;;;;;;10.13;2.83;;;8.90;64.70;;;;;;5083804;27;46399;-68
2022/11/24 10:56:03;;;;;;;6.87;1.63;;;9.00;64.60;;;;;;5080355;27;46670;-70
2022/11/24 10:58:34;;;;;;;11.20;1.60;;;9.00;64.60;;;;;;5085002;27;46523;-68
2022/11/24 11:01:11;;;;;;;5.10;1.40;;;9.00;64.60;;;;;;5082111;27;45971;-69
2022/11/24 11:03:46;;;;;;;9.80;1.57;;;8.90;64.60;;;;;;5087991;27;46523;-69
2022/11/24 11:06:35;;;;;;;5.33;1.60;;;8.90;65.20;;;;;;5084743;27;47266;-67
2022/11/24 11:09:18;;;;;;;93.90;36.27;;;8.80;65.40;;;;;;5086276;27;46735;-68
2022/11/24 11:11:45;;;;;;;8.40;1.90;;;8.70;66.10;;;;;;5085349;27;46397;-67
2022/11/24 11:14:11;;;;;;;10.30;1.80;;;8.60;66.70;;;;;;5083234;27;46521;-72
2022/11/24 11:16:51;;;;;;;5.13;1.30;;;8.50;67.10;;;;;;5082647;27;48014;-69
2022/11/24 11:19:39;;;;;;;6.27;1.33;;;8.50;67.50;;;;;;5083042;27;46312;-68
2022/11/24 11:22:18;;;;;;;5.33;1.57;;;8.50;67.50;;;;;;5082163;27;46415;-69
2022/11/24 11:24:45;;;;;;;8.13;2.13;;;8.50;68.10;;;;;;5086108;27;46494;-69
2022/11/24 11:27:20;;;;;;;6.30;1.33;;;8.60;67.70;;;;;;5087933;27;46556;-68
2022/11/24 11:29:46;;;;;;;7.13;1.63;;;8.80;67.50;;;;;;5118200;27;46611;-69
2022/11/24 11:32:17;;;;;;;4.40;1.37;;;8.60;67.80;;;;;;5087948;27;46412;-68
2022/11/24 11:34:42;;;;;;;8.70;1.77;;;8.70;67.90;;;;;;5086751;27;46818;-67
2022/11/24 11:37:11;;;;;;;6.67;1.10;;;8.70;68.20;;;;;;5089554;27;46480;-66
2022/11/24 11:39:44;;;;;;;4.27;1.23;;;8.60;68.50;;;;;;5084248;27;46605;-67
2022/11/24 11:42:31;;;;;;;7.80;1.57;;;8.50;68.80;;;;;;5088081;27;46635;-68
2022/11/24 11:45:04;;;;;;;7.47;1.93;;;8.50;69.30;;;;;;5087562;27;46393;-71
2022/11/24 11:47:43;;;;;;;5.17;1.60;;;8.70;69.20;;;;;;5086512;27;46700;-68
2022/11/24 11:50:14;;;;;;;6.60;1.70;;;8.90;68.80;;;;;;5086306;27;46791;-67
2022/11/24 11:53:10;;;;;;;6.60;1.70;;;8.90;68.90;;;;;;5086869;27;46425;-66
2022/11/24 11:55:41;;;;;;;3.30;1.20;;;8.90;68.90;;;;;;5079906;27;46746;-68
2022/11/24 11:58:34;;;;;;;4.33;1.83;;;9.00;69.00;;;;;;5082592;27;46543;-68
2022/11/24 12:01:21;;;;;;;4.00;1.60;;;9.20;68.10;;;;;;5085056;27;46769;-67
2022/11/24 12:04:02;;;;;;;4.07;1.40;;;9.40;67.50;;;;;;5086221;27;46507;-69
2022/11/24 12:06:46;;;;;;;7.70;1.27;;;9.30;67.70;;;;;;5102098;27;47167;-70
2022/11/24 12:09:32;;;;;;;13.23;1.90;;;9.30;67.90;;;;;;5084990;27;47875;-70
2022/11/24 12:12:28;;;;;;;9.20;1.60;;;9.10;68.30;;;;;;5084515;27;46660;-70
2022/11/24 12:15:05;;;;;;;4.70;1.50;;;8.90;69.10;;;;;;5087707;27;46506;-68
2022/11/24 12:17:45;;;;;;;5.03;2.10;;;8.70;69.60;;;;;;5086833;27;46810;-68
2022/11/24 12:20:16;;;;;;;2.40;1.20;;;8.60;70.00;;;;;;5089360;27;46309;-68
2022/11/24 12:23:00;;;;;;;7.23;1.67;;;8.50;70.70;;;;;;5086923;27;46456;-68
2022/11/24 12:25:40;;;;;;;6.13;1.60;;;8.40;71.30;;;;;;5084482;27;46449;-68
2022/11/24 12:28:33;;;;;;;5.30;1.90;;;8.40;71.60;;;;;;5086966;27;46412;-70
2022/11/24 12:31:02;;;;;;;287.37;145.33;;;8.40;71.20;;;;;;5096819;27;47871;-68
2022/11/24 12:33:49;;;;;;;8.20;2.40;;;8.40;71.10;;;;;;5084661;27;46422;-69
2022/11/24 12:36:52;;;;;;;5.13;1.90;;;8.50;70.90;;;;;;5085251;27;46539;-66
2022/11/24 12:39:29;;;;;;;6.53;2.80;;;8.60;70.40;;;;;;5083772;27;46242;-69
2022/11/24 12:42:16;;;;;;;5.77;2.23;;;8.70;69.90;;;;;;5089555;27;46859;-71
2022/11/24 12:45:17;;;;;;;8.93;2.30;;;8.80;69.60;;;;;;5084579;27;46545;-67
2022/11/24 12:48:02;;;;;;;7.00;3.03;;;9.10;69.30;;;;;;5084824;27;46662;-68
2022/11/24 12:50:31;;;;;;;4.93;2.13;;;9.40;68.80;;;;;;5086833;27;46506;-68
2022/11/24 12:53:19;;;;;;;5.53;2.40;;;9.60;68.20;;;;;;5085242;27;47187;-67
2022/11/24 12:55:45;;;;;;;3.20;1.97;;;9.90;67.80;;;;;;5086068;27;46531;-67
2022/11/24 12:58:32;;;;;;;4.30;1.27;;;10.10;66.40;;;;;;5085082;27;46423;-69
2022/11/24 13:01:29;;;;;;;3.80;1.90;;;10.20;65.90;;;;;;5081585;27;46295;-66
2022/11/24 13:04:30;;;;;;;3.20;1.60;;;10.30;65.70;;;;;;5084848;27;46656;-68
2022/11/24 13:07:23;;;;;;;5.93;2.10;;;10.40;65.10;;;;;;5085235;27;46782;-68
2022/11/24 13:10:26;;;;;;;7.03;3.03;;;10.30;65.10;;;;;;5085930;27;46423;-67
2022/11/24 13:12:58;;;;;;;11.20;3.10;;;10.60;64.90;;;;;;5087529;27;46821;-68
2022/11/24 13:15:25;;;;;;;5.53;2.20;;;10.80;65.10;;;;;;5083486;27;47004;-67